Terminal Aerodrome Forecast
Issued by NWS Des Moines, IA

Home | Current Version | Previous Version | Text Only | Print | Product List | Glossary On
Versions: 1 2 3 4 5 6 7 8 9 10 11 12 13 14 15
000
FTUS43 KDMX 281128
TAFDSM
TAF
KDSM 281128Z 2812/2912 01010KT P6SM BKN025
     FM281500 36010G16KT P6SM BKN025 OVC040
     FM281800 35011G17KT P6SM SCT030 BKN050
     FM282300 36009KT P6SM SCT060=

USA.gov is the U.S. government's official web portal to all federal, state and local government web resources and services.